Aegean Tiffany — SVAE9 — position and weather

sailwx.info

Track history (hours):
 
Tides and Currents Weather Stations Pressure Air Temp Water Temp Dewpoint Dewpoint Depression Visibility Wind Speed Wind Dir Waves Ship Positions

Aegean Tiffany

Last reported at 2015-Aug-01 19:33 UTC. Time now 2015-Aug-02 02:19 UTC.
Position N 37°54' E 023°04'.

Length 80 m; draft 5.4 m.

Type: Tanker. MMSI: 240870000.

Date/timePositionNaut miles runAvg speedWind from/ knotsBaromVisibWave heightAir tempDewpointWater temp
2015-Aug-01 19:33N 37°54' E 023°04'7 7.0
2015-Aug-01 18:32N 37°55' E 023°13'7 7.4
2015-Aug-01 17:33N 37°57' E 023°22'6 6.2
2015-Aug-01 16:32N 38°01' E 023°28'3 2.7
2015-Aug-01 15:34N 38°02' E 023°31'0 0.0
2015-Aug-01 14:33N 38°02' E 023°31'0 0.0
2015-Aug-01 13:33N 38°02' E 023°31'0 0.0
2015-Aug-01 12:34N 38°02' E 023°31'0 0.0
2015-Aug-01 11:33N 38°02' E 023°31'0 0.0
2015-Aug-01 10:33N 38°02' E 023°31'0 0.0
2015-Aug-01 09:33N 38°02' E 023°31'0 0.0
2015-Aug-01 08:34N 38°02' E 023°31'0 0.0
2015-Aug-01 07:33N 38°02' E 023°31'0 0.0
2015-Aug-01 06:34N 38°02' E 023°31'0 0.0
2015-Aug-01 05:33N 38°02' E 023°31'0 0.0
2015-Aug-01 04:33N 38°02' E 023°31'0 0.0
2015-Aug-01 03:33N 38°02' E 023°31'0 0.0
2015-Aug-01 02:33N 38°02' E 023°31'1 0.6
2015-Aug-01 01:33N 38°02' E 023°31'6 6.2
2015-Aug-01 00:34N 37°59' E 023°25'7 6.9
2015-Jul-31 23:33N 37°55' E 023°17'9 8.6
2015-Jul-31 22:29N 37°53' E 023°06'31 7.6
2015-Jul-31 18:24N 38°09' E 022°32'  
2015-Jul-26 02:09N 38°09' E 022°31'31 6.6
2015-Jul-25 21:31N 37°54' E 023°05'9 7.4
2015-Jul-25 20:22N 37°55' E 023°16'6 7.6
2015-Jul-25 19:33N 37°57' E 023°23'6 5.9
2015-Jul-25 18:33N 38°01' E 023°29'3 0.3
2015-Jul-25 10:33N 38°02' E 023°32'1 1.0
2015-Jul-25 09:33N 38°02' E 023°31'0 0.0
2015-Jul-25 08:33N 38°02' E 023°31'0 0.0
2015-Jul-25 07:33N 38°02' E 023°31'0 0.0
2015-Jul-25 06:33N 38°02' E 023°31'0 0.0
2015-Jul-25 05:33N 38°02' E 023°31'0 0.0
2015-Jul-25 04:33N 38°02' E 023°31'0 0.0
2015-Jul-25 03:33N 38°02' E 023°31'0 0.0
2015-Jul-25 02:33N 38°02' E 023°31'0 0.0
2015-Jul-25 01:33N 38°02' E 023°31'0 0.0
2015-Jul-25 00:33N 38°02' E 023°31'0 0.0
2015-Jul-24 23:33N 38°02' E 023°31'0 0.0
2015-Jul-24 22:33N 38°02' E 023°31'0 0.0
2015-Jul-24 21:33N 38°02' E 023°31'0 0.2
2015-Jul-24 20:33N 38°02' E 023°31'1 0.9
2015-Jul-24 19:33N 38°02' E 023°32'0 0.0
2015-Jul-24 18:33N 38°02' E 023°32'0 0.0
2015-Jul-24 17:33N 38°02' E 023°32'0 0.0
2015-Jul-24 16:33N 38°02' E 023°32'0 0.0
2015-Jul-24 15:33N 38°02' E 023°32'0 0.0
2015-Jul-24 14:33N 38°02' E 023°32'0 0.0
2015-Jul-24 13:33N 38°02' E 023°32'0 0.0
2015-Jul-24 12:33N 38°02' E 023°32'2 1.6
2015-Jul-24 11:33N 38°01' E 023°33'4 3.9
2015-Jul-24 10:33N 37°57' E 023°34'0 0.0
2015-Jul-24 09:33N 37°57' E 023°34'2 1.7
2015-Jul-24 08:33N 37°58' E 023°33'4 3.8
2015-Jul-24 07:33N 38°02' E 023°32'0 0.0
2015-Jul-24 06:33N 38°02' E 023°32'1 1.5
2015-Jul-24 05:33N 38°01' E 023°30'7 6.7
2015-Jul-24 04:33N 37°57' E 023°24'9 8.5
2015-Jul-24 03:30N 37°55' E 023°13'  
Track history (hours):
 
Tides and Currents Weather Stations Pressure Air Temp Water Temp Dewpoint Dewpoint Depression Visibility Wind Speed Wind Dir Waves Ship Positions

Aegean Tiffany

Last reported at 2015-Aug-01 19:33 UTC. Time now 2015-Aug-02 02:19 UTC.
Position N 37°54' E 023°04'.

Length 80 m; draft 5.4 m.

Type: Tanker. MMSI: 240870000.

Date/timePositionNaut miles runAvg speedWind from/ knotsBaromVisibWave heightAir tempDewpointWater temp
2015-Aug-01 19:33N 37°54' E 023°04'7 7.0
2015-Aug-01 18:32N 37°55' E 023°13'7 7.4
2015-Aug-01 17:33N 37°57' E 023°22'6 6.2
2015-Aug-01 16:32N 38°01' E 023°28'3 2.7
2015-Aug-01 15:34N 38°02' E 023°31'0 0.0
2015-Aug-01 14:33N 38°02' E 023°31'0 0.0
2015-Aug-01 13:33N 38°02' E 023°31'0 0.0
2015-Aug-01 12:34N 38°02' E 023°31'0 0.0
2015-Aug-01 11:33N 38°02' E 023°31'0 0.0
2015-Aug-01 10:33N 38°02' E 023°31'0 0.0
2015-Aug-01 09:33N 38°02' E 023°31'0 0.0
2015-Aug-01 08:34N 38°02' E 023°31'0 0.0
2015-Aug-01 07:33N 38°02' E 023°31'0 0.0
2015-Aug-01 06:34N 38°02' E 023°31'0 0.0
2015-Aug-01 05:33N 38°02' E 023°31'0 0.0
2015-Aug-01 04:33N 38°02' E 023°31'0 0.0
2015-Aug-01 03:33N 38°02' E 023°31'0 0.0
2015-Aug-01 02:33N 38°02' E 023°31'1 0.6
2015-Aug-01 01:33N 38°02' E 023°31'6 6.2
2015-Aug-01 00:34N 37°59' E 023°25'7 6.9
2015-Jul-31 23:33N 37°55' E 023°17'9 8.6
2015-Jul-31 22:29N 37°53' E 023°06'31 7.6
2015-Jul-31 18:24N 38°09' E 022°32'  
2015-Jul-26 02:09N 38°09' E 022°31'31 6.6
2015-Jul-25 21:31N 37°54' E 023°05'9 7.4
2015-Jul-25 20:22N 37°55' E 023°16'6 7.6
2015-Jul-25 19:33N 37°57' E 023°23'6 5.9
2015-Jul-25 18:33N 38°01' E 023°29'3 0.3
2015-Jul-25 10:33N 38°02' E 023°32'1 1.0
2015-Jul-25 09:33N 38°02' E 023°31'0 0.0
2015-Jul-25 08:33N 38°02' E 023°31'0 0.0
2015-Jul-25 07:33N 38°02' E 023°31'0 0.0
2015-Jul-25 06:33N 38°02' E 023°31'0 0.0
2015-Jul-25 05:33N 38°02' E 023°31'0 0.0
2015-Jul-25 04:33N 38°02' E 023°31'0 0.0
2015-Jul-25 03:33N 38°02' E 023°31'0 0.0
2015-Jul-25 02:33N 38°02' E 023°31'0 0.0
2015-Jul-25 01:33N 38°02' E 023°31'0 0.0
2015-Jul-25 00:33N 38°02' E 023°31'0 0.0
2015-Jul-24 23:33N 38°02' E 023°31'0 0.0
2015-Jul-24 22:33N 38°02' E 023°31'0 0.0
2015-Jul-24 21:33N 38°02' E 023°31'0 0.2
2015-Jul-24 20:33N 38°02' E 023°31'1 0.9
2015-Jul-24 19:33N 38°02' E 023°32'0 0.0
2015-Jul-24 18:33N 38°02' E 023°32'0 0.0
2015-Jul-24 17:33N 38°02' E 023°32'0 0.0
2015-Jul-24 16:33N 38°02' E 023°32'0 0.0
2015-Jul-24 15:33N 38°02' E 023°32'0 0.0
2015-Jul-24 14:33N 38°02' E 023°32'0 0.0
2015-Jul-24 13:33N 38°02' E 023°32'0 0.0
2015-Jul-24 12:33N 38°02' E 023°32'2 1.6
2015-Jul-24 11:33N 38°01' E 023°33'4 3.9
2015-Jul-24 10:33N 37°57' E 023°34'0 0.0
2015-Jul-24 09:33N 37°57' E 023°34'2 1.7
2015-Jul-24 08:33N 37°58' E 023°33'4 3.8
2015-Jul-24 07:33N 38°02' E 023°32'0 0.0
2015-Jul-24 06:33N 38°02' E 023°32'1 1.5
2015-Jul-24 05:33N 38°01' E 023°30'7 6.7
2015-Jul-24 04:33N 37°57' E 023°24'9 8.5
2015-Jul-24 03:30N 37°55' E 023°13'  

Dump ship's entire track history